sensor_id;sensor_type;location;lat;lon;timestamp;P1;durP1;ratioP1;P2;durP2;ratioP2
2956;SDS011;1488;51.548;7.222;2023-12-28T00:00:04;1.40;;;1.13;;
2956;SDS011;1488;51.548;7.222;2023-12-28T00:02:32;1.20;;;1.00;;
2956;SDS011;1488;51.548;7.222;2023-12-28T00:04:59;1.20;;;0.90;;
2956;SDS011;1488;51.548;7.222;2023-12-28T00:07:27;1.20;;;1.00;;
2956;SDS011;1488;51.548;7.222;2023-12-28T00:09:54;1.40;;;1.10;;
2956;SDS011;1488;51.548;7.222;2023-12-28T00:12:20;1.40;;;1.10;;
2956;SDS011;1488;51.548;7.222;2023-12-28T00:14:48;1.10;;;0.80;;
2956;SDS011;1488;51.548;7.222;2023-12-28T00:17:15;1.10;;;0.70;;
2956;SDS011;1488;51.548;7.222;2023-12-28T00:19:41;1.93;;;1.03;;
2956;SDS011;1488;51.548;7.222;2023-12-28T00:22:08;1.27;;;0.90;;
2956;SDS011;1488;51.548;7.222;2023-12-28T00:24:36;1.20;;;0.80;;
2956;SDS011;1488;51.548;7.222;2023-12-28T00:27:03;1.50;;;1.00;;
2956;SDS011;1488;51.548;7.222;2023-12-28T00:29:30;1.40;;;0.90;;
2956;SDS011;1488;51.548;7.222;2023-12-28T00:31:57;1.20;;;0.80;;
2956;SDS011;1488;51.548;7.222;2023-12-28T00:34:24;1.40;;;1.03;;
2956;SDS011;1488;51.548;7.222;2023-12-28T00:36:51;1.40;;;0.90;;
2956;SDS011;1488;51.548;7.222;2023-12-28T00:39:18;1.53;;;1.10;;
2956;SDS011;1488;51.548;7.222;2023-12-28T00:41:46;1.27;;;0.93;;
2956;SDS011;1488;51.548;7.222;2023-12-28T00:44:13;1.50;;;0.90;;
2956;SDS011;1488;51.548;7.222;2023-12-28T00:46:40;1.40;;;1.00;;
2956;SDS011;1488;51.548;7.222;2023-12-28T00:49:06;1.40;;;1.00;;
2956;SDS011;1488;51.548;7.222;2023-12-28T00:51:33;1.27;;;0.90;;
2956;SDS011;1488;51.548;7.222;2023-12-28T00:54:00;2.00;;;1.03;;
2956;SDS011;1488;51.548;7.222;2023-12-28T00:56:27;1.87;;;1.00;;
2956;SDS011;1488;51.548;7.222;2023-12-28T00:58:55;3.83;;;0.90;;
2956;SDS011;1488;51.548;7.222;2023-12-28T01:01:22;3.37;;;1.73;;
2956;SDS011;1488;51.548;7.222;2023-12-28T01:03:48;2.40;;;1.07;;
2956;SDS011;1488;51.548;7.222;2023-12-28T01:06:15;1.30;;;1.00;;
2956;SDS011;1488;51.548;7.222;2023-12-28T01:08:42;1.40;;;1.10;;
2956;SDS011;1488;51.548;7.222;2023-12-28T01:11:10;1.80;;;0.90;;
2956;SDS011;1488;51.548;7.222;2023-12-28T01:13:37;1.30;;;1.10;;
2956;SDS011;1488;51.548;7.222;2023-12-28T01:16:05;1.10;;;0.80;;
2956;SDS011;1488;51.548;7.222;2023-12-28T01:18:32;1.40;;;1.00;;
2956;SDS011;1488;51.548;7.222;2023-12-28T01:20:59;1.37;;;0.97;;
2956;SDS011;1488;51.548;7.222;2023-12-28T01:23:26;1.30;;;0.90;;
2956;SDS011;1488;51.548;7.222;2023-12-28T01:25:54;1.20;;;0.80;;
2956;SDS011;1488;51.548;7.222;2023-12-28T01:28:22;2.43;;;1.23;;
2956;SDS011;1488;51.548;7.222;2023-12-28T01:30:48;2.03;;;1.00;;
2956;SDS011;1488;51.548;7.222;2023-12-28T01:33:16;1.30;;;0.90;;
2956;SDS011;1488;51.548;7.222;2023-12-28T01:35:43;1.13;;;0.70;;
2956;SDS011;1488;51.548;7.222;2023-12-28T01:38:10;2.93;;;1.03;;
2956;SDS011;1488;51.548;7.222;2023-12-28T01:40:37;1.57;;;1.07;;
2956;SDS011;1488;51.548;7.222;2023-12-28T01:43:04;1.30;;;1.10;;
2956;SDS011;1488;51.548;7.222;2023-12-28T01:45:30;1.20;;;0.90;;
2956;SDS011;1488;51.548;7.222;2023-12-28T01:47:57;1.20;;;0.97;;
2956;SDS011;1488;51.548;7.222;2023-12-28T01:50:26;1.37;;;0.90;;
2956;SDS011;1488;51.548;7.222;2023-12-28T01:52:54;1.53;;;1.00;;
2956;SDS011;1488;51.548;7.222;2023-12-28T01:55:22;1.20;;;0.80;;
2956;SDS011;1488;51.548;7.222;2023-12-28T01:57:50;1.20;;;0.90;;
2956;SDS011;1488;51.548;7.222;2023-12-28T02:00:16;1.67;;;1.13;;
2956;SDS011;1488;51.548;7.222;2023-12-28T02:02:44;1.40;;;1.00;;
2956;SDS011;1488;51.548;7.222;2023-12-28T02:05:11;1.20;;;0.80;;
2956;SDS011;1488;51.548;7.222;2023-12-28T02:07:39;1.57;;;0.93;;
2956;SDS011;1488;51.548;7.222;2023-12-28T02:10:07;1.40;;;1.10;;
2956;SDS011;1488;51.548;7.222;2023-12-28T02:12:33;1.40;;;0.90;;
2956;SDS011;1488;51.548;7.222;2023-12-28T02:15:00;1.10;;;0.80;;
2956;SDS011;1488;51.548;7.222;2023-12-28T02:17:28;1.20;;;0.90;;
2956;SDS011;1488;51.548;7.222;2023-12-28T02:19:59;1.43;;;1.17;;
2956;SDS011;1488;51.548;7.222;2023-12-28T02:22:30;1.30;;;0.97;;
2956;SDS011;1488;51.548;7.222;2023-12-28T02:25:01;1.30;;;1.00;;
2956;SDS011;1488;51.548;7.222;2023-12-28T02:27:30;1.40;;;0.93;;
2956;SDS011;1488;51.548;7.222;2023-12-28T02:29:57;1.60;;;0.93;;
2956;SDS011;1488;51.548;7.222;2023-12-28T02:32:32;1.20;;;0.83;;
2956;SDS011;1488;51.548;7.222;2023-12-28T02:35:09;1.10;;;0.80;;
2956;SDS011;1488;51.548;7.222;2023-12-28T02:37:43;1.20;;;0.97;;
2956;SDS011;1488;51.548;7.222;2023-12-28T02:40:15;1.20;;;1.00;;
2956;SDS011;1488;51.548;7.222;2023-12-28T02:42:43;1.23;;;1.03;;
2956;SDS011;1488;51.548;7.222;2023-12-28T02:45:09;1.40;;;1.00;;
2956;SDS011;1488;51.548;7.222;2023-12-28T02:47:36;1.53;;;0.90;;
2956;SDS011;1488;51.548;7.222;2023-12-28T02:50:03;1.40;;;1.00;;
2956;SDS011;1488;51.548;7.222;2023-12-28T02:52:31;1.20;;;1.10;;
2956;SDS011;1488;51.548;7.222;2023-12-28T02:54:58;1.27;;;1.00;;
2956;SDS011;1488;51.548;7.222;2023-12-28T02:57:26;1.60;;;1.17;;
2956;SDS011;1488;51.548;7.222;2023-12-28T02:59:53;1.30;;;1.00;;
2956;SDS011;1488;51.548;7.222;2023-12-28T03:02:21;1.20;;;0.90;;
2956;SDS011;1488;51.548;7.222;2023-12-28T03:04:48;1.20;;;0.80;;
2956;SDS011;1488;51.548;7.222;2023-12-28T03:07:15;1.70;;;1.17;;
2956;SDS011;1488;51.548;7.222;2023-12-28T03:09:42;1.20;;;1.00;;
2956;SDS011;1488;51.548;7.222;2023-12-28T03:12:08;1.20;;;0.80;;
2956;SDS011;1488;51.548;7.222;2023-12-28T03:14:37;1.40;;;1.10;;
2956;SDS011;1488;51.548;7.222;2023-12-28T03:17:04;1.50;;;0.87;;
2956;SDS011;1488;51.548;7.222;2023-12-28T03:19:30;1.30;;;0.93;;
2956;SDS011;1488;51.548;7.222;2023-12-28T03:21:57;1.40;;;1.00;;
2956;SDS011;1488;51.548;7.222;2023-12-28T03:24:24;1.63;;;1.17;;
2956;SDS011;1488;51.548;7.222;2023-12-28T03:26:51;1.10;;;0.73;;
2956;SDS011;1488;51.548;7.222;2023-12-28T03:29:17;1.20;;;0.80;;
2956;SDS011;1488;51.548;7.222;2023-12-28T03:31:46;1.30;;;1.00;;
2956;SDS011;1488;51.548;7.222;2023-12-28T03:34:13;1.40;;;0.90;;
2956;SDS011;1488;51.548;7.222;2023-12-28T03:36:40;1.20;;;0.83;;
2956;SDS011;1488;51.548;7.222;2023-12-28T03:39:07;1.23;;;0.90;;
2956;SDS011;1488;51.548;7.222;2023-12-28T03:41:34;1.40;;;1.00;;
2956;SDS011;1488;51.548;7.222;2023-12-28T03:44:01;1.20;;;0.80;;
2956;SDS011;1488;51.548;7.222;2023-12-28T03:46:28;1.20;;;0.80;;
2956;SDS011;1488;51.548;7.222;2023-12-28T03:48:56;1.13;;;0.90;;
2956;SDS011;1488;51.548;7.222;2023-12-28T03:51:23;1.73;;;1.00;;
2956;SDS011;1488;51.548;7.222;2023-12-28T03:53:49;1.30;;;1.10;;
2956;SDS011;1488;51.548;7.222;2023-12-28T03:56:23;1.27;;;1.00;;
2956;SDS011;1488;51.548;7.222;2023-12-28T03:58:51;1.93;;;1.10;;
2956;SDS011;1488;51.548;7.222;2023-12-28T04:01:24;1.33;;;0.83;;
2956;SDS011;1488;51.548;7.222;2023-12-28T04:03:51;1.30;;;0.90;;
2956;SDS011;1488;51.548;7.222;2023-12-28T04:06:19;1.20;;;0.90;;
2956;SDS011;1488;51.548;7.222;2023-12-28T04:08:46;1.60;;;1.07;;
2956;SDS011;1488;51.548;7.222;2023-12-28T04:11:12;1.50;;;1.00;;
2956;SDS011;1488;51.548;7.222;2023-12-28T04:13:39;1.20;;;0.80;;
2956;SDS011;1488;51.548;7.222;2023-12-28T04:16:06;1.40;;;0.90;;
2956;SDS011;1488;51.548;7.222;2023-12-28T04:18:34;1.20;;;0.90;;
2956;SDS011;1488;51.548;7.222;2023-12-28T04:21:01;1.80;;;1.20;;
2956;SDS011;1488;51.548;7.222;2023-12-28T04:23:29;3.70;;;1.20;;
2956;SDS011;1488;51.548;7.222;2023-12-28T04:25:58;1.63;;;0.90;;
2956;SDS011;1488;51.548;7.222;2023-12-28T04:28:24;1.20;;;0.80;;
2956;SDS011;1488;51.548;7.222;2023-12-28T04:30:51;1.40;;;1.00;;
2956;SDS011;1488;51.548;7.222;2023-12-28T04:33:18;1.10;;;0.80;;
2956;SDS011;1488;51.548;7.222;2023-12-28T04:35:45;1.60;;;0.90;;
2956;SDS011;1488;51.548;7.222;2023-12-28T04:38:12;1.60;;;0.77;;
2956;SDS011;1488;51.548;7.222;2023-12-28T04:40:41;9.07;;;1.53;;
2956;SDS011;1488;51.548;7.222;2023-12-28T04:43:08;1.20;;;0.80;;
2956;SDS011;1488;51.548;7.222;2023-12-28T04:45:34;1.23;;;0.90;;
2956;SDS011;1488;51.548;7.222;2023-12-28T04:48:01;1.50;;;1.17;;
2956;SDS011;1488;51.548;7.222;2023-12-28T04:50:28;1.33;;;0.93;;
2956;SDS011;1488;51.548;7.222;2023-12-28T04:52:55;1.20;;;0.90;;
2956;SDS011;1488;51.548;7.222;2023-12-28T04:55:22;1.40;;;0.90;;
2956;SDS011;1488;51.548;7.222;2023-12-28T04:57:50;1.50;;;0.90;;
2956;SDS011;1488;51.548;7.222;2023-12-28T05:00:17;1.27;;;0.93;;
2956;SDS011;1488;51.548;7.222;2023-12-28T05:02:44;1.20;;;1.10;;
2956;SDS011;1488;51.548;7.222;2023-12-28T05:05:11;1.50;;;1.10;;
2956;SDS011;1488;51.548;7.222;2023-12-28T05:07:39;1.20;;;1.00;;
2956;SDS011;1488;51.548;7.222;2023-12-28T05:10:06;1.10;;;0.70;;
2956;SDS011;1488;51.548;7.222;2023-12-28T05:12:34;1.50;;;1.07;;
2956;SDS011;1488;51.548;7.222;2023-12-28T05:15:02;1.10;;;0.80;;
2956;SDS011;1488;51.548;7.222;2023-12-28T05:17:29;1.60;;;1.00;;
2956;SDS011;1488;51.548;7.222;2023-12-28T05:19:56;1.30;;;1.00;;
2956;SDS011;1488;51.548;7.222;2023-12-28T05:22:23;1.50;;;1.00;;
2956;SDS011;1488;51.548;7.222;2023-12-28T05:24:50;1.70;;;1.30;;
2956;SDS011;1488;51.548;7.222;2023-12-28T05:27:17;1.30;;;0.97;;
2956;SDS011;1488;51.548;7.222;2023-12-28T05:29:43;1.50;;;0.80;;
2956;SDS011;1488;51.548;7.222;2023-12-28T05:32:12;2.00;;;1.00;;
2956;SDS011;1488;51.548;7.222;2023-12-28T05:34:38;2.07;;;1.03;;
2956;SDS011;1488;51.548;7.222;2023-12-28T05:37:05;1.50;;;0.80;;
2956;SDS011;1488;51.548;7.222;2023-12-28T05:39:32;1.10;;;0.90;;
2956;SDS011;1488;51.548;7.222;2023-12-28T05:41:59;2.03;;;0.90;;
2956;SDS011;1488;51.548;7.222;2023-12-28T05:44:25;1.20;;;0.93;;
2956;SDS011;1488;51.548;7.222;2023-12-28T05:46:52;1.20;;;1.03;;
2956;SDS011;1488;51.548;7.222;2023-12-28T05:49:20;1.30;;;1.00;;
2956;SDS011;1488;51.548;7.222;2023-12-28T05:51:47;1.57;;;1.03;;
2956;SDS011;1488;51.548;7.222;2023-12-28T05:54:14;1.40;;;1.07;;
2956;SDS011;1488;51.548;7.222;2023-12-28T05:56:41;1.30;;;1.03;;
2956;SDS011;1488;51.548;7.222;2023-12-28T05:59:07;1.20;;;0.80;;
2956;SDS011;1488;51.548;7.222;2023-12-28T06:01:41;1.50;;;0.93;;
2956;SDS011;1488;51.548;7.222;2023-12-28T06:04:08;1.43;;;0.73;;
2956;SDS011;1488;51.548;7.222;2023-12-28T06:06:36;1.20;;;0.80;;
2956;SDS011;1488;51.548;7.222;2023-12-28T06:09:03;1.50;;;0.80;;
2956;SDS011;1488;51.548;7.222;2023-12-28T06:11:30;1.20;;;0.90;;
2956;SDS011;1488;51.548;7.222;2023-12-28T06:13:57;1.20;;;0.90;;
2956;SDS011;1488;51.548;7.222;2023-12-28T06:16:23;1.10;;;0.80;;
2956;SDS011;1488;51.548;7.222;2023-12-28T06:18:50;1.20;;;0.87;;
2956;SDS011;1488;51.548;7.222;2023-12-28T06:21:17;1.10;;;0.80;;
2956;SDS011;1488;51.548;7.222;2023-12-28T06:23:45;1.20;;;0.90;;
2956;SDS011;1488;51.548;7.222;2023-12-28T06:26:12;1.50;;;0.90;;
2956;SDS011;1488;51.548;7.222;2023-12-28T06:28:39;1.40;;;0.90;;
2956;SDS011;1488;51.548;7.222;2023-12-28T06:31:05;1.30;;;1.00;;
2956;SDS011;1488;51.548;7.222;2023-12-28T06:33:32;1.23;;;0.80;;
2956;SDS011;1488;51.548;7.222;2023-12-28T06:36:04;1.30;;;0.90;;
2956;SDS011;1488;51.548;7.222;2023-12-28T06:38:31;1.97;;;1.00;;
2956;SDS011;1488;51.548;7.222;2023-12-28T06:40:59;1.50;;;0.80;;
2956;SDS011;1488;51.548;7.222;2023-12-28T06:43:26;1.17;;;0.87;;
2956;SDS011;1488;51.548;7.222;2023-12-28T06:45:53;1.20;;;0.87;;
2956;SDS011;1488;51.548;7.222;2023-12-28T06:48:20;1.20;;;0.87;;
2956;SDS011;1488;51.548;7.222;2023-12-28T06:50:47;1.27;;;0.93;;
2956;SDS011;1488;51.548;7.222;2023-12-28T06:53:13;1.30;;;1.00;;
2956;SDS011;1488;51.548;7.222;2023-12-28T06:55:40;1.20;;;0.80;;
2956;SDS011;1488;51.548;7.222;2023-12-28T06:58:08;1.40;;;0.90;;
2956;SDS011;1488;51.548;7.222;2023-12-28T07:00:35;1.40;;;1.00;;
2956;SDS011;1488;51.548;7.222;2023-12-28T07:03:02;1.20;;;1.00;;
2956;SDS011;1488;51.548;7.222;2023-12-28T07:05:29;1.10;;;0.80;;
2956;SDS011;1488;51.548;7.222;2023-12-28T07:07:55;1.27;;;1.00;;
2956;SDS011;1488;51.548;7.222;2023-12-28T07:10:22;1.20;;;0.90;;
2956;SDS011;1488;51.548;7.222;2023-12-28T07:12:49;1.23;;;0.87;;
2956;SDS011;1488;51.548;7.222;2023-12-28T07:15:17;1.20;;;0.90;;
2956;SDS011;1488;51.548;7.222;2023-12-28T07:17:44;1.53;;;1.03;;
2956;SDS011;1488;51.548;7.222;2023-12-28T07:20:11;1.33;;;1.10;;
2956;SDS011;1488;51.548;7.222;2023-12-28T07:22:38;1.20;;;0.90;;
2956;SDS011;1488;51.548;7.222;2023-12-28T07:25:05;1.23;;;0.90;;
2956;SDS011;1488;51.548;7.222;2023-12-28T07:27:32;1.27;;;0.93;;
2956;SDS011;1488;51.548;7.222;2023-12-28T07:30:00;1.20;;;0.87;;
2956;SDS011;1488;51.548;7.222;2023-12-28T07:32:29;1.77;;;0.80;;
2956;SDS011;1488;51.548;7.222;2023-12-28T07:34:56;1.40;;;1.10;;
2956;SDS011;1488;51.548;7.222;2023-12-28T07:37:24;1.20;;;0.80;;
2956;SDS011;1488;51.548;7.222;2023-12-28T07:39:50;1.57;;;1.10;;
2956;SDS011;1488;51.548;7.222;2023-12-28T07:42:18;1.30;;;0.80;;
2956;SDS011;1488;51.548;7.222;2023-12-28T07:44:45;1.20;;;0.80;;
2956;SDS011;1488;51.548;7.222;2023-12-28T07:47:11;1.30;;;0.90;;
2956;SDS011;1488;51.548;7.222;2023-12-28T07:49:40;3.13;;;0.80;;
2956;SDS011;1488;51.548;7.222;2023-12-28T07:52:07;1.63;;;0.87;;
2956;SDS011;1488;51.548;7.222;2023-12-28T07:54:34;1.50;;;0.90;;
2956;SDS011;1488;51.548;7.222;2023-12-28T07:57:01;1.97;;;1.00;;
2956;SDS011;1488;51.548;7.222;2023-12-28T07:59:28;1.13;;;0.80;;
2956;SDS011;1488;51.548;7.222;2023-12-28T08:01:54;1.30;;;0.87;;
2956;SDS011;1488;51.548;7.222;2023-12-28T08:04:21;1.20;;;0.90;;
2956;SDS011;1488;51.548;7.222;2023-12-28T08:06:49;1.70;;;1.10;;
2956;SDS011;1488;51.548;7.222;2023-12-28T08:09:16;1.20;;;0.80;;
2956;SDS011;1488;51.548;7.222;2023-12-28T08:11:43;2.80;;;1.00;;
2956;SDS011;1488;51.548;7.222;2023-12-28T08:14:10;1.17;;;0.80;;
2956;SDS011;1488;51.548;7.222;2023-12-28T08:16:37;1.20;;;0.80;;
2956;SDS011;1488;51.548;7.222;2023-12-28T08:19:04;1.27;;;0.83;;
2956;SDS011;1488;51.548;7.222;2023-12-28T08:21:30;2.53;;;0.80;;
2956;SDS011;1488;51.548;7.222;2023-12-28T08:23:58;1.40;;;1.10;;
2956;SDS011;1488;51.548;7.222;2023-12-28T08:26:25;1.20;;;0.90;;
2956;SDS011;1488;51.548;7.222;2023-12-28T08:28:51;2.13;;;0.90;;
2956;SDS011;1488;51.548;7.222;2023-12-28T08:31:18;1.37;;;1.00;;
2956;SDS011;1488;51.548;7.222;2023-12-28T08:33:45;1.77;;;1.00;;
2956;SDS011;1488;51.548;7.222;2023-12-28T08:36:12;1.20;;;0.97;;
2956;SDS011;1488;51.548;7.222;2023-12-28T08:38:38;1.47;;;0.80;;
2956;SDS011;1488;51.548;7.222;2023-12-28T08:41:07;2.03;;;0.90;;
2956;SDS011;1488;51.548;7.222;2023-12-28T08:43:34;2.17;;;0.80;;
2956;SDS011;1488;51.548;7.222;2023-12-28T08:46:01;1.50;;;1.00;;
2956;SDS011;1488;51.548;7.222;2023-12-28T08:48:28;1.47;;;1.00;;
2956;SDS011;1488;51.548;7.222;2023-12-28T08:50:55;6.30;;;1.10;;
2956;SDS011;1488;51.548;7.222;2023-12-28T08:53:21;1.50;;;1.00;;
2956;SDS011;1488;51.548;7.222;2023-12-28T08:55:48;1.77;;;1.00;;
2956;SDS011;1488;51.548;7.222;2023-12-28T08:58:16;1.70;;;0.93;;
2956;SDS011;1488;51.548;7.222;2023-12-28T09:00:44;4.40;;;1.30;;
2956;SDS011;1488;51.548;7.222;2023-12-28T09:03:12;1.40;;;0.90;;
2956;SDS011;1488;51.548;7.222;2023-12-28T09:05:38;1.30;;;1.07;;
2956;SDS011;1488;51.548;7.222;2023-12-28T09:08:05;3.13;;;1.10;;
2956;SDS011;1488;51.548;7.222;2023-12-28T09:10:33;2.23;;;0.90;;
2956;SDS011;1488;51.548;7.222;2023-12-28T09:13:00;2.00;;;1.00;;
2956;SDS011;1488;51.548;7.222;2023-12-28T09:15:28;1.97;;;0.90;;
2956;SDS011;1488;51.548;7.222;2023-12-28T09:17:55;2.33;;;0.80;;
2956;SDS011;1488;51.548;7.222;2023-12-28T09:20:22;1.27;;;0.97;;
2956;SDS011;1488;51.548;7.222;2023-12-28T09:22:49;2.80;;;1.10;;
2956;SDS011;1488;51.548;7.222;2023-12-28T09:25:21;1.33;;;0.90;;
2956;SDS011;1488;51.548;7.222;2023-12-28T09:27:47;2.93;;;1.03;;
2956;SDS011;1488;51.548;7.222;2023-12-28T09:30:14;1.90;;;1.00;;
2956;SDS011;1488;51.548;7.222;2023-12-28T09:32:43;1.20;;;0.90;;
2956;SDS011;1488;51.548;7.222;2023-12-28T09:35:10;1.27;;;1.00;;
2956;SDS011;1488;51.548;7.222;2023-12-28T09:37:37;1.30;;;0.93;;
2956;SDS011;1488;51.548;7.222;2023-12-28T09:40:04;1.40;;;0.90;;
2956;SDS011;1488;51.548;7.222;2023-12-28T09:42:35;1.30;;;0.80;;
2956;SDS011;1488;51.548;7.222;2023-12-28T09:45:06;2.13;;;1.00;;
2956;SDS011;1488;51.548;7.222;2023-12-28T09:47:35;1.33;;;0.90;;
2956;SDS011;1488;51.548;7.222;2023-12-28T09:50:04;1.93;;;0.80;;
2956;SDS011;1488;51.548;7.222;2023-12-28T09:52:31;1.60;;;0.90;;
2956;SDS011;1488;51.548;7.222;2023-12-28T09:54:58;3.53;;;1.20;;
2956;SDS011;1488;51.548;7.222;2023-12-28T09:57:26;1.50;;;1.00;;
2956;SDS011;1488;51.548;7.222;2023-12-28T09:59:53;3.43;;;1.00;;
2956;SDS011;1488;51.548;7.222;2023-12-28T10:02:20;1.77;;;0.90;;
2956;SDS011;1488;51.548;7.222;2023-12-28T10:04:47;1.60;;;0.83;;
2956;SDS011;1488;51.548;7.222;2023-12-28T10:07:15;1.30;;;1.00;;
2956;SDS011;1488;51.548;7.222;2023-12-28T10:09:42;8.57;;;2.77;;
2956;SDS011;1488;51.548;7.222;2023-12-28T10:12:09;9.17;;;2.13;;
2956;SDS011;1488;51.548;7.222;2023-12-28T10:14:36;3.20;;;1.70;;
2956;SDS011;1488;51.548;7.222;2023-12-28T10:17:03;3.40;;;1.80;;
2956;SDS011;1488;51.548;7.222;2023-12-28T10:19:30;2.93;;;1.80;;
2956;SDS011;1488;51.548;7.222;2023-12-28T10:21:57;7.27;;;2.10;;
2956;SDS011;1488;51.548;7.222;2023-12-28T10:24:26;5.70;;;1.90;;
2956;SDS011;1488;51.548;7.222;2023-12-28T10:26:53;4.07;;;1.60;;
2956;SDS011;1488;51.548;7.222;2023-12-28T10:29:19;4.70;;;1.33;;
2956;SDS011;1488;51.548;7.222;2023-12-28T10:31:46;3.33;;;1.30;;
2956;SDS011;1488;51.548;7.222;2023-12-28T10:34:15;3.67;;;1.50;;
2956;SDS011;1488;51.548;7.222;2023-12-28T10:36:42;2.90;;;1.33;;
2956;SDS011;1488;51.548;7.222;2023-12-28T10:39:09;2.50;;;1.30;;
2956;SDS011;1488;51.548;7.222;2023-12-28T10:41:39;1.87;;;1.37;;
2956;SDS011;1488;51.548;7.222;2023-12-28T10:44:10;3.97;;;1.50;;
2956;SDS011;1488;51.548;7.222;2023-12-28T10:46:42;2.70;;;1.20;;
2956;SDS011;1488;51.548;7.222;2023-12-28T10:49:10;3.10;;;2.07;;
2956;SDS011;1488;51.548;7.222;2023-12-28T10:51:40;3.30;;;1.90;;
2956;SDS011;1488;51.548;7.222;2023-12-28T10:54:10;3.63;;;1.40;;
2956;SDS011;1488;51.548;7.222;2023-12-28T10:56:49;7.40;;;1.67;;
2956;SDS011;1488;51.548;7.222;2023-12-28T10:59:24;4.87;;;1.60;;
2956;SDS011;1488;51.548;7.222;2023-12-28T11:01:59;4.20;;;1.70;;
2956;SDS011;1488;51.548;7.222;2023-12-28T11:04:29;3.23;;;1.20;;
2956;SDS011;1488;51.548;7.222;2023-12-28T11:07:01;2.30;;;1.53;;
2956;SDS011;1488;51.548;7.222;2023-12-28T11:09:30;2.47;;;1.53;;
2956;SDS011;1488;51.548;7.222;2023-12-28T11:11:59;2.97;;;1.63;;
2956;SDS011;1488;51.548;7.222;2023-12-28T11:14:27;1.93;;;1.03;;
2956;SDS011;1488;51.548;7.222;2023-12-28T11:16:54;7.27;;;1.30;;
2956;SDS011;1488;51.548;7.222;2023-12-28T11:19:23;2.90;;;1.40;;
2956;SDS011;1488;51.548;7.222;2023-12-28T11:21:50;3.10;;;1.40;;
2956;SDS011;1488;51.548;7.222;2023-12-28T11:24:18;4.60;;;1.50;;
2956;SDS011;1488;51.548;7.222;2023-12-28T11:26:51;3.40;;;1.20;;
2956;SDS011;1488;51.548;7.222;2023-12-28T11:29:21;2.30;;;1.47;;
2956;SDS011;1488;51.548;7.222;2023-12-28T11:31:50;3.60;;;1.43;;
2956;SDS011;1488;51.548;7.222;2023-12-28T11:34:17;4.50;;;1.57;;
2956;SDS011;1488;51.548;7.222;2023-12-28T11:36:45;3.43;;;1.30;;
2956;SDS011;1488;51.548;7.222;2023-12-28T11:39:18;3.27;;;1.13;;
2956;SDS011;1488;51.548;7.222;2023-12-28T11:41:50;4.27;;;1.20;;
2956;SDS011;1488;51.548;7.222;2023-12-28T11:44:16;2.60;;;1.10;;
2956;SDS011;1488;51.548;7.222;2023-12-28T11:46:44;3.97;;;1.50;;
2956;SDS011;1488;51.548;7.222;2023-12-28T11:49:11;3.40;;;1.20;;
2956;SDS011;1488;51.548;7.222;2023-12-28T11:51:38;2.60;;;1.10;;
2956;SDS011;1488;51.548;7.222;2023-12-28T11:54:06;1.90;;;1.20;;
2956;SDS011;1488;51.548;7.222;2023-12-28T11:56:33;1.77;;;1.20;;
2956;SDS011;1488;51.548;7.222;2023-12-28T11:58:59;2.37;;;1.13;;
2956;SDS011;1488;51.548;7.222;2023-12-28T12:01:26;2.70;;;1.40;;
2956;SDS011;1488;51.548;7.222;2023-12-28T12:03:54;2.57;;;1.00;;
2956;SDS011;1488;51.548;7.222;2023-12-28T12:06:22;2.87;;;1.47;;
2956;SDS011;1488;51.548;7.222;2023-12-28T12:08:50;3.20;;;1.07;;
2956;SDS011;1488;51.548;7.222;2023-12-28T12:11:17;1.57;;;1.07;;
2956;SDS011;1488;51.548;7.222;2023-12-28T12:13:44;1.77;;;1.20;;
2956;SDS011;1488;51.548;7.222;2023-12-28T12:16:13;2.57;;;1.10;;
2956;SDS011;1488;51.548;7.222;2023-12-28T12:18:40;2.70;;;1.30;;
2956;SDS011;1488;51.548;7.222;2023-12-28T12:21:09;1.60;;;1.10;;
2956;SDS011;1488;51.548;7.222;2023-12-28T12:23:36;2.07;;;1.20;;
2956;SDS011;1488;51.548;7.222;2023-12-28T12:26:05;2.20;;;1.10;;
2956;SDS011;1488;51.548;7.222;2023-12-28T12:28:33;3.67;;;1.33;;
2956;SDS011;1488;51.548;7.222;2023-12-28T12:31:00;3.33;;;1.50;;
2956;SDS011;1488;51.548;7.222;2023-12-28T12:33:28;2.60;;;1.20;;
2956;SDS011;1488;51.548;7.222;2023-12-28T12:35:55;1.93;;;0.97;;
2956;SDS011;1488;51.548;7.222;2023-12-28T12:38:24;2.67;;;1.23;;
2956;SDS011;1488;51.548;7.222;2023-12-28T12:40:51;2.47;;;1.30;;
2956;SDS011;1488;51.548;7.222;2023-12-28T12:43:18;3.60;;;1.27;;
2956;SDS011;1488;51.548;7.222;2023-12-28T12:45:46;2.60;;;1.30;;
2956;SDS011;1488;51.548;7.222;2023-12-28T12:48:13;2.13;;;1.70;;
2956;SDS011;1488;51.548;7.222;2023-12-28T12:50:40;1.50;;;1.10;;
2956;SDS011;1488;51.548;7.222;2023-12-28T12:53:07;1.53;;;1.17;;
2956;SDS011;1488;51.548;7.222;2023-12-28T12:55:37;4.80;;;1.37;;
2956;SDS011;1488;51.548;7.222;2023-12-28T12:58:07;2.43;;;1.20;;
2956;SDS011;1488;51.548;7.222;2023-12-28T13:00:34;1.90;;;1.00;;
2956;SDS011;1488;51.548;7.222;2023-12-28T13:03:03;3.50;;;1.17;;
2956;SDS011;1488;51.548;7.222;2023-12-28T17:34:59;2.23;;;1.23;;
2956;SDS011;1488;51.548;7.222;2023-12-28T17:37:26;1.73;;;1.30;;
2956;SDS011;1488;51.548;7.222;2023-12-28T17:39:54;4.90;;;1.40;;
2956;SDS011;1488;51.548;7.222;2023-12-28T17:42:22;3.23;;;1.60;;
2956;SDS011;1488;51.548;7.222;2023-12-28T17:44:53;2.03;;;1.37;;
2956;SDS011;1488;51.548;7.222;2023-12-28T17:47:23;4.77;;;1.50;;
2956;SDS011;1488;51.548;7.222;2023-12-28T17:49:53;2.03;;;1.47;;
2956;SDS011;1488;51.548;7.222;2023-12-28T17:52:21;2.17;;;1.40;;
2956;SDS011;1488;51.548;7.222;2023-12-28T17:54:50;1.83;;;1.50;;
2956;SDS011;1488;51.548;7.222;2023-12-28T17:57:17;3.10;;;1.30;;
2956;SDS011;1488;51.548;7.222;2023-12-28T17:59:44;2.17;;;1.43;;
2956;SDS011;1488;51.548;7.222;2023-12-28T18:02:11;2.97;;;1.50;;
2956;SDS011;1488;51.548;7.222;2023-12-28T18:04:38;2.87;;;1.57;;
2956;SDS011;1488;51.548;7.222;2023-12-28T18:07:04;2.67;;;1.40;;
2956;SDS011;1488;51.548;7.222;2023-12-28T18:09:33;3.30;;;1.37;;
2956;SDS011;1488;51.548;7.222;2023-12-28T18:12:05;3.73;;;1.47;;
2956;SDS011;1488;51.548;7.222;2023-12-28T18:14:33;1.83;;;1.10;;
2956;SDS011;1488;51.548;7.222;2023-12-28T18:18:35;3.10;;;1.27;;
2956;SDS011;1488;51.548;7.222;2023-12-28T18:20:09;2.50;;;1.60;;
2956;SDS011;1488;51.548;7.222;2023-12-28T18:22:37;2.77;;;1.70;;
2956;SDS011;1488;51.548;7.222;2023-12-28T18:25:06;3.20;;;1.40;;
2956;SDS011;1488;51.548;7.222;2023-12-28T18:27:33;1.80;;;1.20;;
2956;SDS011;1488;51.548;7.222;2023-12-28T18:30:00;3.90;;;1.73;;
2956;SDS011;1488;51.548;7.222;2023-12-28T18:32:27;2.07;;;1.20;;
2956;SDS011;1488;51.548;7.222;2023-12-28T18:34:54;5.10;;;1.20;;
2956;SDS011;1488;51.548;7.222;2023-12-28T18:37:21;1.50;;;1.10;;
2956;SDS011;1488;51.548;7.222;2023-12-28T18:39:50;2.43;;;1.47;;
2956;SDS011;1488;51.548;7.222;2023-12-28T18:42:19;4.23;;;1.73;;
2956;SDS011;1488;51.548;7.222;2023-12-28T18:44:46;1.80;;;1.40;;
2956;SDS011;1488;51.548;7.222;2023-12-28T18:47:12;1.33;;;0.97;;
2956;SDS011;1488;51.548;7.222;2023-12-28T18:49:39;3.20;;;1.20;;
2956;SDS011;1488;51.548;7.222;2023-12-28T18:52:06;1.93;;;1.20;;
2956;SDS011;1488;51.548;7.222;2023-12-28T18:54:32;2.53;;;1.30;;
2956;SDS011;1488;51.548;7.222;2023-12-28T18:56:59;6.93;;;1.37;;
2956;SDS011;1488;51.548;7.222;2023-12-28T18:59:27;4.10;;;1.57;;
2956;SDS011;1488;51.548;7.222;2023-12-28T19:01:54;3.00;;;1.47;;
2956;SDS011;1488;51.548;7.222;2023-12-28T19:04:21;2.70;;;1.30;;
2956;SDS011;1488;51.548;7.222;2023-12-28T19:06:47;2.83;;;1.50;;
2956;SDS011;1488;51.548;7.222;2023-12-28T19:09:14;3.20;;;1.40;;
2956;SDS011;1488;51.548;7.222;2023-12-28T19:11:41;1.63;;;1.00;;
2956;SDS011;1488;51.548;7.222;2023-12-28T19:14:08;2.13;;;1.20;;
2956;SDS011;1488;51.548;7.222;2023-12-28T19:16:36;1.87;;;1.00;;
2956;SDS011;1488;51.548;7.222;2023-12-28T19:19:03;4.00;;;1.20;;
2956;SDS011;1488;51.548;7.222;2023-12-28T19:21:30;2.27;;;1.40;;
2956;SDS011;1488;51.548;7.222;2023-12-28T19:23:57;1.40;;;0.90;;
2956;SDS011;1488;51.548;7.222;2023-12-28T19:26:24;4.90;;;1.23;;
2956;SDS011;1488;51.548;7.222;2023-12-28T19:28:52;1.70;;;1.10;;
2956;SDS011;1488;51.548;7.222;2023-12-28T19:31:19;2.60;;;1.20;;
2956;SDS011;1488;51.548;7.222;2023-12-28T19:33:49;1.43;;;1.00;;
2956;SDS011;1488;51.548;7.222;2023-12-28T19:36:15;3.17;;;1.37;;
2956;SDS011;1488;51.548;7.222;2023-12-28T19:38:42;3.40;;;1.57;;
2956;SDS011;1488;51.548;7.222;2023-12-28T19:41:09;11.40;;;1.57;;
2956;SDS011;1488;51.548;7.222;2023-12-28T19:43:36;5.30;;;1.10;;
2956;SDS011;1488;51.548;7.222;2023-12-28T19:46:03;4.13;;;1.00;;